sensor_id;sensor_type;location;lat;lon;timestamp;temperature;humidity
3770;DHT22;1900;48.890;9.190;2023-03-11T00:00:32;9.00;52.30
3770;DHT22;1900;48.890;9.190;2023-03-11T00:03:00;8.90;52.30
3770;DHT22;1900;48.890;9.190;2023-03-11T00:05:28;8.90;52.40
3770;DHT22;1900;48.890;9.190;2023-03-11T00:07:54;8.90;52.20
3770;DHT22;1900;48.890;9.190;2023-03-11T00:10:27;8.90;52.00
3770;DHT22;1900;48.890;9.190;2023-03-11T00:12:56;8.90;52.00
3770;DHT22;1900;48.890;9.190;2023-03-11T00:15:22;8.80;52.10
3770;DHT22;1900;48.890;9.190;2023-03-11T00:17:48;8.80;52.00
3770;DHT22;1900;48.890;9.190;2023-03-11T00:20:21;8.80;51.90
3770;DHT22;1900;48.890;9.190;2023-03-11T00:22:47;8.80;51.80
3770;DHT22;1900;48.890;9.190;2023-03-11T00:25:13;8.70;51.80
3770;DHT22;1900;48.890;9.190;2023-03-11T00:27:39;8.70;51.70
3770;DHT22;1900;48.890;9.190;2023-03-11T00:30:06;8.60;51.40
3770;DHT22;1900;48.890;9.190;2023-03-11T00:32:31;8.50;51.40
3770;DHT22;1900;48.890;9.190;2023-03-11T00:34:57;8.50;51.50
3770;DHT22;1900;48.890;9.190;2023-03-11T00:37:23;8.50;51.60
3770;DHT22;1900;48.890;9.190;2023-03-11T00:39:48;8.50;51.80
3770;DHT22;1900;48.890;9.190;2023-03-11T00:42:14;8.40;51.90
3770;DHT22;1900;48.890;9.190;2023-03-11T00:44:40;8.40;51.90
3770;DHT22;1900;48.890;9.190;2023-03-11T00:47:05;8.40;51.90
3770;DHT22;1900;48.890;9.190;2023-03-11T00:49:32;8.40;51.80
3770;DHT22;1900;48.890;9.190;2023-03-11T00:51:57;8.40;51.80
3770;DHT22;1900;48.890;9.190;2023-03-11T00:54:23;8.40;51.80
3770;DHT22;1900;48.890;9.190;2023-03-11T00:56:49;8.40;51.90
3770;DHT22;1900;48.890;9.190;2023-03-11T00:59:14;8.40;52.00
3770;DHT22;1900;48.890;9.190;2023-03-11T01:01:40;8.40;52.10
3770;DHT22;1900;48.890;9.190;2023-03-11T01:04:09;8.40;52.10
3770;DHT22;1900;48.890;9.190;2023-03-11T01:06:37;8.40;52.10
3770;DHT22;1900;48.890;9.190;2023-03-11T01:09:02;8.40;52.10
3770;DHT22;1900;48.890;9.190;2023-03-11T01:11:29;8.40;52.10
3770;DHT22;1900;48.890;9.190;2023-03-11T01:13:55;8.40;52.10
3770;DHT22;1900;48.890;9.190;2023-03-11T01:16:21;8.40;52.10
3770;DHT22;1900;48.890;9.190;2023-03-11T01:18:48;8.40;51.90
3770;DHT22;1900;48.890;9.190;2023-03-11T01:21:14;8.40;51.90
3770;DHT22;1900;48.890;9.190;2023-03-11T01:23:40;8.40;52.10
3770;DHT22;1900;48.890;9.190;2023-03-11T01:26:06;8.40;52.00
3770;DHT22;1900;48.890;9.190;2023-03-11T01:28:32;8.30;51.70
3770;DHT22;1900;48.890;9.190;2023-03-11T01:30:57;8.30;51.70
3770;DHT22;1900;48.890;9.190;2023-03-11T01:33:23;8.30;51.80
3770;DHT22;1900;48.890;9.190;2023-03-11T01:35:49;8.30;51.90
3770;DHT22;1900;48.890;9.190;2023-03-11T01:38:15;8.30;52.00
3770;DHT22;1900;48.890;9.190;2023-03-11T01:40:49;8.30;52.00
3770;DHT22;1900;48.890;9.190;2023-03-11T01:48:28;8.20;51.70
3770;DHT22;1900;48.890;9.190;2023-03-11T01:50:54;8.20;51.70
3770;DHT22;1900;48.890;9.190;2023-03-11T01:53:21;8.20;51.90
3770;DHT22;1900;48.890;9.190;2023-03-11T01:55:48;8.20;52.00
3770;DHT22;1900;48.890;9.190;2023-03-11T01:58:17;8.20;52.20
3770;DHT22;1900;48.890;9.190;2023-03-11T02:00:45;8.20;52.20
3770;DHT22;1900;48.890;9.190;2023-03-11T02:03:26;8.20;52.10
3770;DHT22;1900;48.890;9.190;2023-03-11T02:05:55;8.20;52.00
3770;DHT22;1900;48.890;9.190;2023-03-11T02:08:22;8.20;52.10
3770;DHT22;1900;48.890;9.190;2023-03-11T02:10:49;8.30;52.30
3770;DHT22;1900;48.890;9.190;2023-03-11T02:13:16;8.20;52.00
3770;DHT22;1900;48.890;9.190;2023-03-11T02:15:53;8.20;52.00
3770;DHT22;1900;48.890;9.190;2023-03-11T02:18:19;8.20;51.90
3770;DHT22;1900;48.890;9.190;2023-03-11T02:21:07;8.20;51.70
3770;DHT22;1900;48.890;9.190;2023-03-11T02:26:14;8.10;51.50
3770;DHT22;1900;48.890;9.190;2023-03-11T02:28:43;8.10;51.60
3770;DHT22;1900;48.890;9.190;2023-03-11T02:31:13;8.00;51.50
3770;DHT22;1900;48.890;9.190;2023-03-11T02:33:40;8.00;51.70
3770;DHT22;1900;48.890;9.190;2023-03-11T02:38:56;8.00;51.70
3770;DHT22;1900;48.890;9.190;2023-03-11T02:41:22;8.00;51.70
3770;DHT22;1900;48.890;9.190;2023-03-11T02:43:48;8.00;51.80
3770;DHT22;1900;48.890;9.190;2023-03-11T02:46:16;8.00;51.70
3770;DHT22;1900;48.890;9.190;2023-03-11T02:48:43;8.00;51.90
3770;DHT22;1900;48.890;9.190;2023-03-11T02:51:11;8.00;51.70
3770;DHT22;1900;48.890;9.190;2023-03-11T02:53:43;8.00;51.70
3770;DHT22;1900;48.890;9.190;2023-03-11T02:56:09;7.90;51.60
3770;DHT22;1900;48.890;9.190;2023-03-11T02:58:35;8.00;51.80
3770;DHT22;1900;48.890;9.190;2023-03-11T03:01:00;7.90;51.80
3770;DHT22;1900;48.890;9.190;2023-03-11T03:03:26;7.90;51.70
3770;DHT22;1900;48.890;9.190;2023-03-11T03:05:52;7.90;51.50
3770;DHT22;1900;48.890;9.190;2023-03-11T03:08:18;7.90;51.40
3770;DHT22;1900;48.890;9.190;2023-03-11T03:10:43;7.90;51.50
3770;DHT22;1900;48.890;9.190;2023-03-11T03:13:09;7.90;51.60
3770;DHT22;1900;48.890;9.190;2023-03-11T03:15:35;7.90;51.50
3770;DHT22;1900;48.890;9.190;2023-03-11T03:18:00;7.90;51.50
3770;DHT22;1900;48.890;9.190;2023-03-11T03:20:26;7.80;51.30
3770;DHT22;1900;48.890;9.190;2023-03-11T03:22:55;7.80;51.40
3770;DHT22;1900;48.890;9.190;2023-03-11T03:25:25;7.80;51.40
3770;DHT22;1900;48.890;9.190;2023-03-11T03:27:52;7.80;51.30
3770;DHT22;1900;48.890;9.190;2023-03-11T03:30:19;7.70;51.20
3770;DHT22;1900;48.890;9.190;2023-03-11T03:32:45;7.70;51.10
3770;DHT22;1900;48.890;9.190;2023-03-11T03:35:14;7.70;51.10
3770;DHT22;1900;48.890;9.190;2023-03-11T03:38:15;7.70;51.10
3770;DHT22;1900;48.890;9.190;2023-03-11T03:40:45;7.60;51.10
3770;DHT22;1900;48.890;9.190;2023-03-11T03:43:13;7.60;51.20
3770;DHT22;1900;48.890;9.190;2023-03-11T03:45:41;7.60;51.30
3770;DHT22;1900;48.890;9.190;2023-03-11T03:48:07;7.60;51.30
3770;DHT22;1900;48.890;9.190;2023-03-11T03:50:38;7.60;50.90
3770;DHT22;1900;48.890;9.190;2023-03-11T03:53:05;7.50;50.90
3770;DHT22;1900;48.890;9.190;2023-03-11T03:55:31;7.50;51.00
3770;DHT22;1900;48.890;9.190;2023-03-11T03:58:00;7.50;51.00
3770;DHT22;1900;48.890;9.190;2023-03-11T04:00:34;7.50;51.00
3770;DHT22;1900;48.890;9.190;2023-03-11T04:03:04;7.50;51.00
3770;DHT22;1900;48.890;9.190;2023-03-11T04:05:41;7.50;50.90
3770;DHT22;1900;48.890;9.190;2023-03-11T04:08:16;7.50;50.90
3770;DHT22;1900;48.890;9.190;2023-03-11T04:10:42;7.40;50.80
3770;DHT22;1900;48.890;9.190;2023-03-11T04:13:08;7.40;50.90
3770;DHT22;1900;48.890;9.190;2023-03-11T04:15:37;7.40;50.80
3770;DHT22;1900;48.890;9.190;2023-03-11T04:18:02;7.40;50.60
3770;DHT22;1900;48.890;9.190;2023-03-11T04:20:28;7.30;50.70
3770;DHT22;1900;48.890;9.190;2023-03-11T04:22:54;7.30;50.80
3770;DHT22;1900;48.890;9.190;2023-03-11T04:25:22;7.30;51.00
3770;DHT22;1900;48.890;9.190;2023-03-11T04:27:48;7.40;51.10
3770;DHT22;1900;48.890;9.190;2023-03-11T04:30:17;7.40;51.10
3770;DHT22;1900;48.890;9.190;2023-03-11T04:32:45;7.40;50.90
3770;DHT22;1900;48.890;9.190;2023-03-11T04:35:11;7.30;50.70
3770;DHT22;1900;48.890;9.190;2023-03-11T04:37:38;7.30;50.40
3770;DHT22;1900;48.890;9.190;2023-03-11T04:40:04;7.20;50.30
3770;DHT22;1900;48.890;9.190;2023-03-11T04:42:32;7.20;50.30
3770;DHT22;1900;48.890;9.190;2023-03-11T04:44:58;7.20;50.50
3770;DHT22;1900;48.890;9.190;2023-03-11T04:47:27;7.20;50.70
3770;DHT22;1900;48.890;9.190;2023-03-11T04:49:53;7.20;50.70
3770;DHT22;1900;48.890;9.190;2023-03-11T04:52:21;7.10;50.70
3770;DHT22;1900;48.890;9.190;2023-03-11T04:54:46;7.10;50.70
3770;DHT22;1900;48.890;9.190;2023-03-11T04:57:12;7.20;50.80
3770;DHT22;1900;48.890;9.190;2023-03-11T04:59:46;7.10;50.60
3770;DHT22;1900;48.890;9.190;2023-03-11T05:02:13;7.10;50.40
3770;DHT22;1900;48.890;9.190;2023-03-11T05:04:48;7.10;51.00
3770;DHT22;1900;48.890;9.190;2023-03-11T05:07:15;7.00;50.30
3770;DHT22;1900;48.890;9.190;2023-03-11T05:09:42;7.00;50.40
3770;DHT22;1900;48.890;9.190;2023-03-11T05:12:10;7.00;50.30
3770;DHT22;1900;48.890;9.190;2023-03-11T05:14:36;7.00;50.30
3770;DHT22;1900;48.890;9.190;2023-03-11T05:17:02;6.90;50.20
3770;DHT22;1900;48.890;9.190;2023-03-11T05:19:29;6.90;50.20
3770;DHT22;1900;48.890;9.190;2023-03-11T05:22:04;6.90;50.20
3770;DHT22;1900;48.890;9.190;2023-03-11T05:24:30;6.80;50.10
3770;DHT22;1900;48.890;9.190;2023-03-11T05:26:56;6.80;50.10
3770;DHT22;1900;48.890;9.190;2023-03-11T05:29:23;6.80;50.20
3770;DHT22;1900;48.890;9.190;2023-03-11T05:31:50;6.70;50.20
3770;DHT22;1900;48.890;9.190;2023-03-11T05:34:16;6.70;50.30
3770;DHT22;1900;48.890;9.190;2023-03-11T05:36:42;6.70;50.40
3770;DHT22;1900;48.890;9.190;2023-03-11T05:39:08;6.70;50.40
3770;DHT22;1900;48.890;9.190;2023-03-11T05:41:34;6.70;50.50
3770;DHT22;1900;48.890;9.190;2023-03-11T05:44:00;6.80;50.60
3770;DHT22;1900;48.890;9.190;2023-03-11T05:46:26;6.80;51.10
3770;DHT22;1900;48.890;9.190;2023-03-11T05:48:52;6.80;50.50
3770;DHT22;1900;48.890;9.190;2023-03-11T05:51:19;6.80;50.60
3770;DHT22;1900;48.890;9.190;2023-03-11T05:53:46;6.80;50.60
3770;DHT22;1900;48.890;9.190;2023-03-11T05:56:17;6.80;50.80
3770;DHT22;1900;48.890;9.190;2023-03-11T05:58:43;6.80;50.60
3770;DHT22;1900;48.890;9.190;2023-03-11T06:01:11;6.90;51.20
3770;DHT22;1900;48.890;9.190;2023-03-11T06:03:38;7.00;51.80
3770;DHT22;1900;48.890;9.190;2023-03-11T06:06:05;7.10;52.30
3770;DHT22;1900;48.890;9.190;2023-03-11T06:08:31;7.30;52.30
3770;DHT22;1900;48.890;9.190;2023-03-11T06:11:07;7.30;52.10
3770;DHT22;1900;48.890;9.190;2023-03-11T06:13:36;7.40;52.20
3770;DHT22;1900;48.890;9.190;2023-03-11T06:16:02;7.50;52.10
3770;DHT22;1900;48.890;9.190;2023-03-11T06:18:28;7.60;52.40
3770;DHT22;1900;48.890;9.190;2023-03-11T06:20:57;7.70;52.60
3770;DHT22;1900;48.890;9.190;2023-03-11T06:23:23;7.80;52.70
3770;DHT22;1900;48.890;9.190;2023-03-11T06:26:02;7.90;53.00
3770;DHT22;1900;48.890;9.190;2023-03-11T06:28:33;8.00;53.20
3770;DHT22;1900;48.890;9.190;2023-03-11T06:31:26;8.20;53.40
3770;DHT22;1900;48.890;9.190;2023-03-11T06:33:56;8.20;52.50
3770;DHT22;1900;48.890;9.190;2023-03-11T06:36:24;8.20;51.90
3770;DHT22;1900;48.890;9.190;2023-03-11T06:38:51;8.20;52.10
3770;DHT22;1900;48.890;9.190;2023-03-11T06:41:18;8.20;51.70
3770;DHT22;1900;48.890;9.190;2023-03-11T06:43:44;8.10;51.40
3770;DHT22;1900;48.890;9.190;2023-03-11T06:46:17;8.10;51.30
3770;DHT22;1900;48.890;9.190;2023-03-11T06:48:44;8.10;51.30
3770;DHT22;1900;48.890;9.190;2023-03-11T06:51:11;8.00;51.20
3770;DHT22;1900;48.890;9.190;2023-03-11T06:53:37;8.00;51.10
3770;DHT22;1900;48.890;9.190;2023-03-11T06:56:10;7.90;51.00
3770;DHT22;1900;48.890;9.190;2023-03-11T06:58:44;7.90;50.80
3770;DHT22;1900;48.890;9.190;2023-03-11T07:01:14;7.80;50.70
3770;DHT22;1900;48.890;9.190;2023-03-11T07:03:41;7.80;50.60
3770;DHT22;1900;48.890;9.190;2023-03-11T07:06:13;7.70;50.70
3770;DHT22;1900;48.890;9.190;2023-03-11T07:08:39;7.70;50.80
3770;DHT22;1900;48.890;9.190;2023-03-11T07:11:09;7.70;50.80
3770;DHT22;1900;48.890;9.190;2023-03-11T07:13:36;7.60;50.80
3770;DHT22;1900;48.890;9.190;2023-03-11T07:16:17;7.60;51.00
3770;DHT22;1900;48.890;9.190;2023-03-11T07:18:44;7.60;51.10
3770;DHT22;1900;48.890;9.190;2023-03-11T07:21:14;7.60;51.20
3770;DHT22;1900;48.890;9.190;2023-03-11T07:23:40;7.70;51.40
3770;DHT22;1900;48.890;9.190;2023-03-11T07:26:11;7.70;51.40
3770;DHT22;1900;48.890;9.190;2023-03-11T07:28:38;7.70;51.40
3770;DHT22;1900;48.890;9.190;2023-03-11T07:31:13;7.70;51.40
3770;DHT22;1900;48.890;9.190;2023-03-11T07:33:39;7.70;51.50
3770;DHT22;1900;48.890;9.190;2023-03-11T07:36:15;7.70;51.40
3770;DHT22;1900;48.890;9.190;2023-03-11T07:38:41;7.70;51.20
3770;DHT22;1900;48.890;9.190;2023-03-11T07:41:09;7.70;51.00
3770;DHT22;1900;48.890;9.190;2023-03-11T07:43:36;7.70;51.00
3770;DHT22;1900;48.890;9.190;2023-03-11T07:46:07;7.70;51.00
3770;DHT22;1900;48.890;9.190;2023-03-11T07:48:34;7.70;51.10
3770;DHT22;1900;48.890;9.190;2023-03-11T07:51:02;7.70;51.10
3770;DHT22;1900;48.890;9.190;2023-03-11T07:53:28;7.70;51.10
3770;DHT22;1900;48.890;9.190;2023-03-11T07:55:58;7.70;51.10
3770;DHT22;1900;48.890;9.190;2023-03-11T07:58:24;7.80;50.90
3770;DHT22;1900;48.890;9.190;2023-03-11T08:00:50;7.70;50.70
3770;DHT22;1900;48.890;9.190;2023-03-11T08:03:16;7.70;50.70
3770;DHT22;1900;48.890;9.190;2023-03-11T08:05:41;7.70;50.80
3770;DHT22;1900;48.890;9.190;2023-03-11T08:08:07;7.70;50.80
3770;DHT22;1900;48.890;9.190;2023-03-11T08:10:36;7.70;51.00
3770;DHT22;1900;48.890;9.190;2023-03-11T08:13:01;7.70;51.10
3770;DHT22;1900;48.890;9.190;2023-03-11T08:15:27;7.70;51.00
3770;DHT22;1900;48.890;9.190;2023-03-11T08:17:53;7.80;50.90
3770;DHT22;1900;48.890;9.190;2023-03-11T08:20:18;7.80;51.10
3770;DHT22;1900;48.890;9.190;2023-03-11T08:22:44;7.80;51.20
3770;DHT22;1900;48.890;9.190;2023-03-11T08:25:10;7.80;51.10
3770;DHT22;1900;48.890;9.190;2023-03-11T08:27:35;7.90;51.30
3770;DHT22;1900;48.890;9.190;2023-03-11T08:30:01;7.90;51.40
3770;DHT22;1900;48.890;9.190;2023-03-11T08:32:27;7.90;51.40
3770;DHT22;1900;48.890;9.190;2023-03-11T08:34:56;8.00;51.50
3770;DHT22;1900;48.890;9.190;2023-03-11T08:37:22;8.10;51.60
3770;DHT22;1900;48.890;9.190;2023-03-11T08:39:48;8.10;51.50
3770;DHT22;1900;48.890;9.190;2023-03-11T08:42:15;8.10;51.50
3770;DHT22;1900;48.890;9.190;2023-03-11T08:44:41;8.20;51.50
3770;DHT22;1900;48.890;9.190;2023-03-11T08:47:06;8.20;51.60
3770;DHT22;1900;48.890;9.190;2023-03-11T08:49:32;8.30;51.70
3770;DHT22;1900;48.890;9.190;2023-03-11T08:51:58;8.30;52.00
3770;DHT22;1900;48.890;9.190;2023-03-11T08:54:25;8.40;52.20
3770;DHT22;1900;48.890;9.190;2023-03-11T08:56:51;8.50;52.60
3770;DHT22;1900;48.890;9.190;2023-03-11T08:59:17;8.50;51.80
3770;DHT22;1900;48.890;9.190;2023-03-11T09:01:42;8.60;51.70
3770;DHT22;1900;48.890;9.190;2023-03-11T09:04:08;8.60;51.90
3770;DHT22;1900;48.890;9.190;2023-03-11T09:06:34;8.70;52.20
3770;DHT22;1900;48.890;9.190;2023-03-11T09:09:00;8.80;52.50
3770;DHT22;1900;48.890;9.190;2023-03-11T09:11:25;8.90;52.70
3770;DHT22;1900;48.890;9.190;2023-03-11T09:13:51;9.00;53.10
3770;DHT22;1900;48.890;9.190;2023-03-11T09:16:19;9.20;53.30
3770;DHT22;1900;48.890;9.190;2023-03-11T09:18:45;9.30;53.30
3770;DHT22;1900;48.890;9.190;2023-03-11T09:21:11;9.40;53.40
3770;DHT22;1900;48.890;9.190;2023-03-11T09:23:38;9.50;53.40
3770;DHT22;1900;48.890;9.190;2023-03-11T09:26:04;9.60;53.10
3770;DHT22;1900;48.890;9.190;2023-03-11T09:28:30;9.70;53.20
3770;DHT22;1900;48.890;9.190;2023-03-11T09:30:56;9.80;53.30
3770;DHT22;1900;48.890;9.190;2023-03-11T09:33:22;9.90;53.00
3770;DHT22;1900;48.890;9.190;2023-03-11T09:35:48;9.90;52.70
3770;DHT22;1900;48.890;9.190;2023-03-11T09:38:13;10.00;51.70
3770;DHT22;1900;48.890;9.190;2023-03-11T09:40:55;10.00;51.40
3770;DHT22;1900;48.890;9.190;2023-03-11T09:49:28;10.30;51.90
3770;DHT22;1900;48.890;9.190;2023-03-11T09:52:14;10.30;51.70
3770;DHT22;1900;48.890;9.190;2023-03-11T09:54:44;10.40;51.90
3770;DHT22;1900;48.890;9.190;2023-03-11T09:57:24;10.50;52.20
3770;DHT22;1900;48.890;9.190;2023-03-11T09:59:51;10.60;52.10
3770;DHT22;1900;48.890;9.190;2023-03-11T10:02:20;10.60;51.70
3770;DHT22;1900;48.890;9.190;2023-03-11T10:07:36;10.70;51.80
3770;DHT22;1900;48.890;9.190;2023-03-11T10:10:04;10.80;52.10
3770;DHT22;1900;48.890;9.190;2023-03-11T10:12:43;10.80;51.70
3770;DHT22;1900;48.890;9.190;2023-03-11T10:17:45;10.90;51.20
3770;DHT22;1900;48.890;9.190;2023-03-11T10:20:34;10.90;51.70
3770;DHT22;1900;48.890;9.190;2023-03-11T10:28:20;11.20;52.40
3770;DHT22;1900;48.890;9.190;2023-03-11T10:30:50;11.20;52.50
3770;DHT22;1900;48.890;9.190;2023-03-11T10:33:39;11.30;52.10
3770;DHT22;1900;48.890;9.190;2023-03-11T10:36:12;11.30;51.80
3770;DHT22;1900;48.890;9.190;2023-03-11T10:38:43;11.30;51.60
3770;DHT22;1900;48.890;9.190;2023-03-11T10:44:05;11.30;52.10
3770;DHT22;1900;48.890;9.190;2023-03-11T10:46:31;11.30;52.40
3770;DHT22;1900;48.890;9.190;2023-03-11T10:48:57;11.30;52.30
3770;DHT22;1900;48.890;9.190;2023-03-11T10:51:31;11.40;51.90
3770;DHT22;1900;48.890;9.190;2023-03-11T10:53:59;11.30;51.30
3770;DHT22;1900;48.890;9.190;2023-03-11T10:56:32;11.30;51.20
3770;DHT22;1900;48.890;9.190;2023-03-11T10:58:59;11.20;51.00
3770;DHT22;1900;48.890;9.190;2023-03-11T11:01:25;11.20;51.40
3770;DHT22;1900;48.890;9.190;2023-03-11T11:03:54;11.20;51.60
3770;DHT22;1900;48.890;9.190;2023-03-11T11:06:29;11.30;51.40
3770;DHT22;1900;48.890;9.190;2023-03-11T11:09:19;11.30;51.30
3770;DHT22;1900;48.890;9.190;2023-03-11T11:12:08;11.40;52.00
3770;DHT22;1900;48.890;9.190;2023-03-11T11:14:47;11.50;52.40
3770;DHT22;1900;48.890;9.190;2023-03-11T11:17:22;11.70;52.90
3770;DHT22;1900;48.890;9.190;2023-03-11T11:19:51;11.80;52.50
3770;DHT22;1900;48.890;9.190;2023-03-11T11:22:20;11.80;52.30
3770;DHT22;1900;48.890;9.190;2023-03-11T11:24:47;11.80;52.20
3770;DHT22;1900;48.890;9.190;2023-03-11T11:27:26;11.90;52.00
3770;DHT22;1900;48.890;9.190;2023-03-11T11:32:36;11.90;51.70
3770;DHT22;1900;48.890;9.190;2023-03-11T11:35:16;11.90;50.90
3770;DHT22;1900;48.890;9.190;2023-03-11T11:37:53;11.80;49.80
3770;DHT22;1900;48.890;9.190;2023-03-11T11:40:26;11.70;50.00
3770;DHT22;1900;48.890;9.190;2023-03-11T11:43:05;11.60;50.40
3770;DHT22;1900;48.890;9.190;2023-03-11T11:48:11;11.70;51.20
3770;DHT22;1900;48.890;9.190;2023-03-11T11:50:50;11.80;51.30
3770;DHT22;1900;48.890;9.190;2023-03-11T11:56:06;12.00;51.90
3770;DHT22;1900;48.890;9.190;2023-03-11T11:58:34;12.10;51.80
3770;DHT22;1900;48.890;9.190;2023-03-11T12:07:04;12.50;52.00
3770;DHT22;1900;48.890;9.190;2023-03-11T12:09:55;12.60;52.60
3770;DHT22;1900;48.890;9.190;2023-03-11T12:15:34;12.90;52.20
3770;DHT22;1900;48.890;9.190;2023-03-11T12:18:01;13.10;51.70
3770;DHT22;1900;48.890;9.190;2023-03-11T12:20:42;13.20;52.50
3770;DHT22;1900;48.890;9.190;2023-03-11T12:26:14;13.60;53.90
3770;DHT22;1900;48.890;9.190;2023-03-11T12:28:50;13.80;52.60
3770;DHT22;1900;48.890;9.190;2023-03-11T12:31:17;13.90;52.80
3770;DHT22;1900;48.890;9.190;2023-03-11T12:36:34;14.10;52.60
3770;DHT22;1900;48.890;9.190;2023-03-11T12:39:03;14.20;53.50
3770;DHT22;1900;48.890;9.190;2023-03-11T12:41:39;14.30;53.90
3770;DHT22;1900;48.890;9.190;2023-03-11T12:44:27;14.50;53.10
3770;DHT22;1900;48.890;9.190;2023-03-11T12:49:25;14.70;51.90
3770;DHT22;1900;48.890;9.190;2023-03-11T12:54:46;14.90;52.10
3770;DHT22;1900;48.890;9.190;2023-03-11T13:03:04;15.20;53.40
3770;DHT22;1900;48.890;9.190;2023-03-11T13:05:48;15.40;53.90
3770;DHT22;1900;48.890;9.190;2023-03-11T13:10:43;15.50;50.90
3770;DHT22;1900;48.890;9.190;2023-03-11T13:13:39;15.60;50.90
3770;DHT22;1900;48.890;9.190;2023-03-11T13:18:39;15.70;51.00
3770;DHT22;1900;48.890;9.190;2023-03-11T13:30:00;16.00;50.20
3770;DHT22;1900;48.890;9.190;2023-03-11T13:40:55;16.30;50.80
3770;DHT22;1900;48.890;9.190;2023-03-11T13:43:23;16.40;52.40
3770;DHT22;1900;48.890;9.190;2023-03-11T13:45:59;16.50;53.20
3770;DHT22;1900;48.890;9.190;2023-03-11T13:48:46;16.70;53.40
3770;DHT22;1900;48.890;9.190;2023-03-11T13:51:20;16.90;53.60
3770;DHT22;1900;48.890;9.190;2023-03-11T13:53:55;17.10;52.60
3770;DHT22;1900;48.890;9.190;2023-03-11T13:56:27;17.20;51.30
3770;DHT22;1900;48.890;9.190;2023-03-11T13:58:53;17.20;51.80
3770;DHT22;1900;48.890;9.190;2023-03-11T14:01:19;17.30;52.70
3770;DHT22;1900;48.890;9.190;2023-03-11T14:03:46;17.40;51.30
3770;DHT22;1900;48.890;9.190;2023-03-11T14:06:17;17.50;51.90
3770;DHT22;1900;48.890;9.190;2023-03-11T14:08:55;17.60;52.40
3770;DHT22;1900;48.890;9.190;2023-03-11T14:11:25;17.70;52.80
3770;DHT22;1900;48.890;9.190;2023-03-11T14:13:51;17.80;52.60
3770;DHT22;1900;48.890;9.190;2023-03-11T14:19:17;17.90;50.50
3770;DHT22;1900;48.890;9.190;2023-03-11T14:21:44;17.90;50.50
3770;DHT22;1900;48.890;9.190;2023-03-11T14:24:24;17.80;49.40
3770;DHT22;1900;48.890;9.190;2023-03-11T14:26:52;17.80;50.30
3770;DHT22;1900;48.890;9.190;2023-03-11T14:29:31;17.80;50.40
3770;DHT22;1900;48.890;9.190;2023-03-11T14:31:57;17.70;50.70
3770;DHT22;1900;48.890;9.190;2023-03-11T14:34:25;17.70;50.50
3770;DHT22;1900;48.890;9.190;2023-03-11T14:36:54;17.70;49.40
3770;DHT22;1900;48.890;9.190;2023-03-11T14:39:34;17.60;49.10
3770;DHT22;1900;48.890;9.190;2023-03-11T14:42:15;17.40;48.40
3770;DHT22;1900;48.890;9.190;2023-03-11T14:44:50;17.20;48.50
3770;DHT22;1900;48.890;9.190;2023-03-11T14:47:39;17.10;47.60
3770;DHT22;1900;48.890;9.190;2023-03-11T14:50:10;16.80;47.80
3770;DHT22;1900;48.890;9.190;2023-03-11T14:52:44;16.60;48.20
3770;DHT22;1900;48.890;9.190;2023-03-11T14:55:22;16.50;47.80
3770;DHT22;1900;48.890;9.190;2023-03-11T15:00:31;16.10;47.50
3770;DHT22;1900;48.890;9.190;2023-03-11T15:05:53;15.80;47.40
3770;DHT22;1900;48.890;9.190;2023-03-11T15:08:22;15.60;46.80
3770;DHT22;1900;48.890;9.190;2023-03-11T15:13:29;15.30;47.30
3770;DHT22;1900;48.890;9.190;2023-03-11T15:15:59;15.20;47.00
3770;DHT22;1900;48.890;9.190;2023-03-11T15:18:31;15.00;46.30
3770;DHT22;1900;48.890;9.190;2023-03-11T15:21:14;14.90;45.90
3770;DHT22;1900;48.890;9.190;2023-03-11T15:23:56;14.70;46.00
3770;DHT22;1900;48.890;9.190;2023-03-11T15:26:29;14.50;46.30
3770;DHT22;1900;48.890;9.190;2023-03-11T15:33:48;14.30;47.10
3770;DHT22;1900;48.890;9.190;2023-03-11T15:36:37;14.30;47.30
3770;DHT22;1900;48.890;9.190;2023-03-11T15:39:19;14.20;47.50
3770;DHT22;1900;48.890;9.190;2023-03-11T15:42:19;14.20;47.60
3770;DHT22;1900;48.890;9.190;2023-03-11T15:47:23;14.10;48.20
3770;DHT22;1900;48.890;9.190;2023-03-11T15:49:49;14.10;47.70
3770;DHT22;1900;48.890;9.190;2023-03-11T15:52:15;14.10;47.90
3770;DHT22;1900;48.890;9.190;2023-03-11T15:54:41;14.00;47.90
3770;DHT22;1900;48.890;9.190;2023-03-11T15:57:08;14.10;48.10
3770;DHT22;1900;48.890;9.190;2023-03-11T15:59:36;14.00;48.00
3770;DHT22;1900;48.890;9.190;2023-03-11T16:02:03;14.00;48.00
3770;DHT22;1900;48.890;9.190;2023-03-11T16:04:28;13.90;47.60
3770;DHT22;1900;48.890;9.190;2023-03-11T16:06:54;13.90;47.50
3770;DHT22;1900;48.890;9.190;2023-03-11T16:09:20;13.80;47.20
3770;DHT22;1900;48.890;9.190;2023-03-11T16:11:46;13.70;46.70
3770;DHT22;1900;48.890;9.190;2023-03-11T16:14:17;13.60;46.60
3770;DHT22;1900;48.890;9.190;2023-03-11T16:16:43;13.50;46.70
3770;DHT22;1900;48.890;9.190;2023-03-11T16:19:10;13.40;46.80
3770;DHT22;1900;48.890;9.190;2023-03-11T16:21:39;13.30;46.90
3770;DHT22;1900;48.890;9.190;2023-03-11T16:24:06;13.30;46.90
3770;DHT22;1900;48.890;9.190;2023-03-11T16:26:33;13.20;47.10
3770;DHT22;1900;48.890;9.190;2023-03-11T16:29:02;13.20;47.20
3770;DHT22;1900;48.890;9.190;2023-03-11T16:31:28;13.20;47.20
3770;DHT22;1900;48.890;9.190;2023-03-11T16:33:54;13.10;47.20
3770;DHT22;1900;48.890;9.190;2023-03-11T16:36:20;13.10;47.20
3770;DHT22;1900;48.890;9.190;2023-03-11T16:38:47;13.10;47.20
3770;DHT22;1900;48.890;9.190;2023-03-11T16:41:14;13.00;47.30
3770;DHT22;1900;48.890;9.190;2023-03-11T16:43:40;13.00;47.30
3770;DHT22;1900;48.890;9.190;2023-03-11T16:46:06;13.00;47.40
3770;DHT22;1900;48.890;9.190;2023-03-11T16:48:32;13.00;47.30
3770;DHT22;1900;48.890;9.190;2023-03-11T16:50:59;13.00;47.10
3770;DHT22;1900;48.890;9.190;2023-03-11T16:53:25;12.90;47.00
3770;DHT22;1900;48.890;9.190;2023-03-11T16:55:51;12.90;47.10
3770;DHT22;1900;48.890;9.190;2023-03-11T16:58:18;12.80;47.00
3770;DHT22;1900;48.890;9.190;2023-03-11T17:00:44;12.80;46.90
3770;DHT22;1900;48.890;9.190;2023-03-11T17:03:12;12.70;46.70
3770;DHT22;1900;48.890;9.190;2023-03-11T17:05:38;12.70;46.70
3770;DHT22;1900;48.890;9.190;2023-03-11T17:08:04;12.60;46.80
3770;DHT22;1900;48.890;9.190;2023-03-11T17:10:36;12.50;46.70
3770;DHT22;1900;48.890;9.190;2023-03-11T17:13:03;12.50;46.80
3770;DHT22;1900;48.890;9.190;2023-03-11T17:15:29;12.50;46.70
3770;DHT22;1900;48.890;9.190;2023-03-11T17:17:54;12.40;46.70
3770;DHT22;1900;48.890;9.190;2023-03-11T17:20:20;12.40;46.80
3770;DHT22;1900;48.890;9.190;2023-03-11T17:22:46;12.40;46.90
3770;DHT22;1900;48.890;9.190;2023-03-11T17:25:11;12.40;46.90
3770;DHT22;1900;48.890;9.190;2023-03-11T17:27:37;12.30;46.90
3770;DHT22;1900;48.890;9.190;2023-03-11T17:30:04;12.30;46.90
3770;DHT22;1900;48.890;9.190;2023-03-11T17:32:30;12.30;46.80
3770;DHT22;1900;48.890;9.190;2023-03-11T17:34:56;12.20;46.50
3770;DHT22;1900;48.890;9.190;2023-03-11T17:37:23;12.20;46.30
3770;DHT22;1900;48.890;9.190;2023-03-11T17:39:49;12.10;46.30
3770;DHT22;1900;48.890;9.190;2023-03-11T17:42:15;12.10;46.40
3770;DHT22;1900;48.890;9.190;2023-03-11T17:44:41;12.00;46.30
3770;DHT22;1900;48.890;9.190;2023-03-11T17:47:07;12.00;46.40
3770;DHT22;1900;48.890;9.190;2023-03-11T17:49:32;11.90;46.40
3770;DHT22;1900;48.890;9.190;2023-03-11T17:51:58;11.90;46.50
3770;DHT22;1900;48.890;9.190;2023-03-11T17:54:24;11.90;46.50
3770;DHT22;1900;48.890;9.190;2023-03-11T17:56:49;11.90;46.50
3770;DHT22;1900;48.890;9.190;2023-03-11T17:59:16;11.90;46.50
3770;DHT22;1900;48.890;9.190;2023-03-11T18:01:42;11.80;46.50
3770;DHT22;1900;48.890;9.190;2023-03-11T18:04:08;11.80;46.50
3770;DHT22;1900;48.890;9.190;2023-03-11T18:06:34;11.80;46.50
3770;DHT22;1900;48.890;9.190;2023-03-11T18:08:59;11.70;46.50